Time;durP1;ratioP1;P1;durP2;ratioP2;P2;SDS_P1;SDS_P2;PMS_P1;PMS_P2;Temp;Humidity;BMP_temperature;BMP_pressure;BME280_temperature;BME280_humidity;BME280_pressure;Samples;Min_cycle;Max_cycle;Signal;HPM_P1;HPM_P2
2022/08/14 00:01:09;;;;;;;32.08;18.20;;;;;;;18.10;100.00;96944.34;5025383;28;20036;-80
2022/08/14 00:03:35;;;;;;;33.35;18.63;;;;;;;18.10;100.00;96938.94;5055966;28;20023;-79
2022/08/14 00:06:02;;;;;;;31.15;17.30;;;;;;;18.20;100.00;96947.81;5055190;28;20049;-79
2022/08/14 00:08:28;;;;;;;36.03;19.38;;;;;;;18.14;100.00;96940.34;5022230;28;20029;-79
2022/08/14 00:10:54;;;;;;;32.53;18.85;;;;;;;18.12;100.00;96928.81;5030312;28;20477;-79
2022/08/14 00:13:23;;;;;;;29.85;17.65;;;;;;;18.10;100.00;96930.81;5028424;28;20033;-80
2022/08/14 00:15:50;;;;;;;26.65;18.23;;;;;;;18.10;100.00;96928.09;5053960;28;20025;-80
2022/08/14 00:18:20;;;;;;;31.60;17.98;;;;;;;18.13;100.00;96925.94;5041680;28;20047;-79
2022/08/14 00:20:47;;;;;;;29.73;18.58;;;;;;;18.10;100.00;96919.97;5046927;28;20089;-80
2022/08/14 00:23:13;;;;;;;33.67;19.40;;;;;;;18.09;100.00;96924.53;5043278;28;20477;-80
2022/08/14 00:25:39;;;;;;;37.05;18.95;;;;;;;18.08;100.00;96911.19;5048114;28;20488;-79
2022/08/14 00:28:08;;;;;;;39.10;19.67;;;;;;;18.14;100.00;96919.53;5042416;28;20048;-80
2022/08/14 00:30:33;;;;;;;30.85;18.45;;;;;;;18.07;100.00;96904.06;5063698;28;20049;-80
2022/08/14 00:32:59;;;;;;;38.53;20.25;;;;;;;18.03;100.00;96908.94;5043946;28;20033;-79
2022/08/14 00:35:24;;;;;;;37.58;20.40;;;;;;;18.04;100.00;96907.06;5040224;28;20041;-80
2022/08/14 00:37:50;;;;;;;34.97;19.88;;;;;;;18.06;100.00;96913.19;5042339;28;20040;-79
2022/08/14 00:40:17;;;;;;;35.05;19.42;;;;;;;18.06;100.00;96915.88;5037689;28;20052;-80
2022/08/14 00:42:43;;;;;;;34.10;19.30;;;;;;;18.01;100.00;96921.78;5026771;28;20086;-80
2022/08/14 00:45:12;;;;;;;37.53;20.10;;;;;;;17.98;100.00;96908.56;5055724;28;20104;-79
2022/08/14 00:47:39;;;;;;;35.05;19.83;;;;;;;18.00;100.00;96913.81;5038087;28;20022;-79
2022/08/14 00:50:07;;;;;;;34.20;21.45;;;;;;;17.92;100.00;96908.34;5019439;28;20119;-80
2022/08/14 00:52:33;;;;;;;35.83;20.92;;;;;;;17.80;100.00;96897.75;5036252;28;20085;-80
2022/08/14 00:54:59;;;;;;;43.75;20.70;;;;;;;17.81;100.00;96898.63;5061860;28;20029;-79
2022/08/14 00:57:28;;;;;;;28.35;20.23;;;;;;;17.79;100.00;96889.78;5030181;28;20030;-80
2022/08/14 00:59:55;;;;;;;36.70;20.92;;;;;;;17.74;100.00;96879.44;5040850;28;20078;-80
2022/08/14 01:02:23;;;;;;;37.63;19.95;;;;;;;17.77;100.00;96894.50;5029175;28;20041;-81
2022/08/14 01:04:51;;;;;;;30.83;19.27;;;;;;;17.82;100.00;96893.03;5041866;28;20021;-80
2022/08/14 01:07:21;;;;;;;34.60;20.45;;;;;;;17.80;100.00;96886.94;5051681;28;20053;-80
2022/08/14 01:09:52;;;;;;;34.95;20.08;;;;;;;17.86;100.00;96882.75;5038780;28;20034;-80
2022/08/14 01:12:18;;;;;;;34.00;19.67;;;;;;;17.82;100.00;96887.63;5044097;28;20040;-79
2022/08/14 01:14:44;;;;;;;36.75;19.73;;;;;;;17.68;100.00;96882.78;5058107;28;20025;-80
2022/08/14 01:17:11;;;;;;;32.25;19.92;;;;;;;17.72;100.00;96881.44;5049385;28;20033;-80
2022/08/14 01:22:21;;;;;;;36.40;19.60;;;;;;;17.69;100.00;96879.03;5037414;28;20037;-80
2022/08/14 01:24:47;;;;;;;38.72;20.85;;;;;;;17.78;100.00;96877.28;5049793;28;20029;-80
2022/08/14 01:27:17;;;;;;;36.50;20.60;;;;;;;17.87;100.00;96882.56;5035741;28;20116;-79
2022/08/14 01:29:45;;;;;;;36.08;19.85;;;;;;;17.87;100.00;96874.47;5042316;28;20029;-80
2022/08/14 01:32:10;;;;;;;35.90;18.60;;;;;;;17.93;100.00;96872.16;5017547;28;20033;-79
2022/08/14 01:34:53;;;;;;;34.33;19.15;;;;;;;17.98;100.00;96875.22;5030523;28;20545;-79
2022/08/14 01:37:22;;;;;;;31.35;19.38;;;;;;;17.99;100.00;96868.81;5027219;28;20045;-80
2022/08/14 01:39:48;;;;;;;29.08;19.13;;;;;;;17.97;100.00;96865.41;5021721;28;20035;-79
2022/08/14 01:42:14;;;;;;;36.88;20.27;;;;;;;18.03;100.00;96870.19;5045995;28;20077;-79
2022/08/14 01:44:40;;;;;;;30.20;18.85;;;;;;;17.81;100.00;96822.84;5036408;28;20025;-79
2022/08/14 01:47:12;;;;;;;31.75;20.05;;;;;;;18.01;100.00;96861.38;5036300;28;20082;-80
2022/08/14 01:49:41;;;;;;;32.83;19.65;;;;;;;17.97;100.00;96865.41;5044972;28;20025;-79
2022/08/14 01:52:07;;;;;;;33.42;20.13;;;;;;;18.03;100.00;96870.19;5035374;28;20044;-80
2022/08/14 01:54:34;;;;;;;29.83;18.50;;;;;;;18.02;100.00;96871.22;5038900;28;20485;-80
2022/08/14 01:57:00;;;;;;;33.50;21.15;;;;;;;17.99;100.00;96858.00;5055372;28;20061;-81
2022/08/14 01:59:31;;;;;;;33.65;20.33;;;;;;;17.99;100.00;96849.88;5053943;28;20028;-79
2022/08/14 02:01:58;;;;;;;35.50;19.60;;;;;;;18.08;100.00;96859.75;5039557;28;20035;-79
2022/08/14 02:04:28;;;;;;;36.17;20.60;;;;;;;18.08;100.00;96857.03;5048681;28;20053;-79
2022/08/14 02:06:54;;;;;;;33.20;19.38;;;;;;;17.99;100.00;96848.03;5043467;28;20535;-79
2022/08/14 02:09:20;;;;;;;34.58;20.85;;;;;;;18.07;100.00;96858.03;5029804;28;20025;-80
2022/08/14 02:11:46;;;;;;;35.33;19.33;;;;;;;17.98;100.00;96848.16;5031354;28;20040;-80
2022/08/14 02:14:13;;;;;;;30.70;18.20;;;;;;;18.00;100.00;96848.84;5031597;28;20037;-79
2022/08/14 02:16:49;;;;;;;34.92;19.95;;;;;;;17.99;100.00;96848.03;5028283;28;20025;-79
2022/08/14 02:19:17;;;;;;;36.03;19.45;;;;;;;18.03;100.00;96840.41;5040609;28;20033;-80
2022/08/14 02:21:44;;;;;;;38.13;18.50;;;;;;;17.98;100.00;96840.06;5049622;28;20033;-79
2022/08/14 02:24:13;;;;;;;32.92;19.00;;;;;;;17.90;100.00;96829.19;5060421;28;20036;-80
2022/08/14 02:26:41;;;;;;;28.00;17.50;;;;;;;17.99;100.00;96834.50;5048057;28;20029;-80
2022/08/14 02:29:09;;;;;;;37.97;19.75;;;;;;;18.03;100.00;96835.84;5056203;28;20032;-80
2022/08/14 02:31:37;;;;;;;33.13;19.23;;;;;;;17.96;100.00;96812.31;5044678;28;20029;-80
2022/08/14 02:34:14;;;;;;;33.88;19.33;;;;;;;17.98;100.00;96826.50;5029320;28;20030;-80
2022/08/14 02:36:40;;;;;;;33.92;18.70;;;;;;;17.88;100.00;96813.94;5044441;28;20093;-80
2022/08/14 02:39:08;;;;;;;34.85;19.25;;;;;;;17.94;100.00;96817.84;5068441;27;20029;-80
2022/08/14 02:41:34;;;;;;;35.30;18.92;;;;;;;17.96;100.00;96821.28;5061857;28;20021;-80
2022/08/14 02:44:02;;;;;;;40.20;18.88;;;;;;;17.99;100.00;96834.50;5061059;28;20092;-80
2022/08/14 02:46:29;;;;;;;36.97;19.08;;;;;;;17.94;100.00;96817.00;5052649;28;20089;-80
2022/08/14 02:48:55;;;;;;;29.75;17.40;;;;;;;17.86;100.00;96826.78;5070896;28;20094;-80
2022/08/14 02:51:21;;;;;;;35.05;18.73;;;;;;;17.90;100.00;96827.31;5056992;28;20030;-80
2022/08/14 02:53:46;;;;;;;28.75;17.85;;;;;;;17.96;100.00;96826.69;5033357;28;20029;-81
2022/08/14 02:56:15;;;;;;;30.73;18.90;;;;;;;17.94;100.00;96817.00;5050839;28;20026;-80
2022/08/14 02:58:45;;;;;;;37.25;18.25;;;;;;;17.93;100.00;96820.75;5069254;28;20048;-80
2022/08/14 03:01:14;;;;;;;30.13;19.50;;;;;;;17.91;100.00;96829.00;5071297;28;20025;-80
2022/08/14 03:03:40;;;;;;;25.80;17.77;;;;;;;17.98;100.00;96840.91;5050714;28;20066;-80
2022/08/14 03:06:07;;;;;;;29.15;18.10;;;;;;;18.02;100.00;96836.03;5059005;28;20129;-81
2022/08/14 03:08:36;;;;;;;33.83;17.60;;;;;;;17.98;100.00;96829.22;5057003;28;20024;-80
2022/08/14 03:11:08;;;;;;;33.20;18.48;;;;;;;17.92;100.00;96827.16;5033996;28;20119;-79
2022/08/14 03:13:37;;;;;;;36.90;19.15;;;;;;;17.94;100.00;96836.81;5057094;28;20044;-80
2022/08/14 03:16:09;;;;;;;37.58;19.10;;;;;;;17.95;100.00;96841.22;5061973;28;20025;-80
2022/08/14 03:18:40;;;;;;;35.50;18.23;;;;;;;18.00;100.00;96832.63;5038077;28;20083;-80
2022/08/14 03:21:10;;;;;;;30.10;17.52;;;;;;;18.03;100.00;96840.41;5060543;28;20029;-80
2022/08/14 03:23:36;;;;;;;33.10;16.50;;;;;;;18.06;100.00;96837.38;5061426;28;20026;-80
2022/08/14 03:26:02;;;;;;;28.50;17.45;;;;;;;18.06;100.00;96831.97;5065395;28;20039;-80
2022/08/14 03:28:29;;;;;;;30.05;17.30;;;;;;;17.97;100.00;96828.38;5033014;28;20022;-80
2022/08/14 03:30:56;;;;;;;27.73;17.95;;;;;;;18.00;100.00;96824.50;5046205;28;20025;-80
2022/08/14 03:33:22;;;;;;;28.65;17.85;;;;;;;18.02;100.00;96825.19;5055054;28;20013;-80
2022/08/14 03:35:48;;;;;;;33.25;18.27;;;;;;;18.06;100.00;96826.56;5041189;28;20029;-80
2022/08/14 03:38:17;;;;;;;27.40;16.80;;;;;;;18.10;100.00;96820.69;5042134;28;20496;-80
2022/08/14 03:40:43;;;;;;;27.00;16.90;;;;;;;18.11;100.00;96825.09;5041467;28;20462;-80
2022/08/14 03:43:09;;;;;;;27.25;17.00;;;;;;;18.22;100.00;96832.94;5045633;28;20037;-80
2022/08/14 03:45:36;;;;;;;31.15;17.92;;;;;;;18.21;100.00;96827.72;5056013;28;20119;-79
2022/08/14 03:48:04;;;;;;;35.92;18.73;;;;;;;18.22;100.00;96832.94;5054531;28;20075;-80
2022/08/14 03:50:31;;;;;;;28.90;16.85;;;;;;;18.30;100.00;96832.16;5066562;28;20254;-81
2022/08/14 03:52:59;;;;;;;31.40;17.60;;;;;;;18.27;100.00;96832.47;5064505;28;20116;-81
2022/08/14 03:55:24;;;;;;;34.58;18.90;;;;;;;18.20;100.00;96839.53;5038952;28;20033;-80
2022/08/14 03:57:50;;;;;;;39.38;17.52;;;;;;;18.27;100.00;96846.03;5035384;28;20130;-80
2022/08/14 04:00:16;;;;;;;33.03;17.88;;;;;;;18.25;100.00;96846.16;5032038;28;20045;-81
2022/08/14 04:02:41;;;;;;;34.60;17.45;;;;;;;18.25;100.00;96837.19;5047331;28;20028;-80
2022/08/14 04:05:08;;;;;;;29.25;16.70;;;;;;;18.29;100.00;96854.81;5039815;28;20538;-81
2022/08/14 04:07:34;;;;;;;26.80;17.85;;;;;;;18.17;100.00;96835.28;5051985;28;20040;-80
2022/08/14 04:10:00;;;;;;;33.97;18.38;;;;;;;18.28;100.00;96847.69;5065696;28;20068;-80
2022/08/14 04:12:26;;;;;;;33.55;18.45;;;;;;;18.30;100.00;96849.22;5044168;28;20020;-80
2022/08/14 04:14:52;;;;;;;39.63;19.33;;;;;;;18.29;100.00;96850.25;5044241;28;20029;-80
2022/08/14 04:17:18;;;;;;;35.03;19.65;;;;;;;18.33;100.00;96850.78;5059804;28;20029;-81
2022/08/14 04:19:46;;;;;;;28.60;18.10;;;;;;;18.29;100.00;96854.81;5031048;28;20028;-79
2022/08/14 04:22:12;;;;;;;28.77;18.48;;;;;;;18.25;100.00;96827.22;5040485;28;20080;-80
2022/08/14 04:24:39;;;;;;;35.10;21.42;;;;;;;18.32;100.00;96840.97;5054050;28;20032;-80
2022/08/14 04:27:08;;;;;;;41.15;22.88;;;;;;;18.24;100.00;96835.50;5031718;28;20029;-80
2022/08/14 04:29:40;;;;;;;52.63;28.35;;;;;;;18.27;100.00;96851.44;5034944;28;20062;-81
2022/08/14 04:32:07;;;;;;;55.13;30.10;;;;;;;18.27;100.00;96852.25;5035927;28;20021;-82
2022/08/14 04:34:34;;;;;;;56.05;33.47;;;;;;;18.26;100.00;96850.59;5024285;28;20041;-81
2022/08/14 04:45:13;;;;;;;47.67;27.05;;;;;;;18.36;100.00;96842.34;5040042;28;20151;-80
2022/08/14 04:50:25;;;;;;;44.80;25.25;;;;;;;18.39;100.00;96839.31;5039651;28;20036;-91
2022/08/14 04:52:50;;;;;;;49.97;25.58;;;;;;;18.46;100.00;96842.25;5017086;28;20044;-82
2022/08/14 04:55:17;;;;;;;47.95;27.45;;;;;;;18.53;100.00;96838.75;5035544;28;20029;-85
2022/08/14 04:57:42;;;;;;;45.08;24.55;;;;;;;18.55;100.00;96833.19;5010679;28;20507;-81
2022/08/14 05:00:08;;;;;;;37.35;21.20;;;;;;;18.53;100.00;96832.47;5021560;28;20029;-81
2022/08/14 05:02:35;;;;;;;40.40;22.08;;;;;;;18.40;100.00;96822.03;5021314;28;20025;-81
2022/08/14 05:05:01;;;;;;;41.38;22.23;;;;;;;18.43;100.00;96829.84;5026196;28;20022;-85
2022/08/14 05:07:26;;;;;;;38.35;21.67;;;;;;;18.36;100.00;96831.53;5039148;28;20376;-84
2022/08/14 05:09:52;;;;;;;45.00;21.88;;;;;;;18.30;100.00;96834.88;5031674;28;20032;-85
2022/08/14 05:12:17;;;;;;;41.20;24.30;;;;;;;18.24;100.00;96832.81;5022315;28;20025;-85
2022/08/14 05:14:43;;;;;;;41.17;25.25;;;;;;;18.15;100.00;96826.47;5014989;28;20423;-83
2022/08/14 05:17:10;;;;;;;45.78;24.38;;;;;;;18.17;100.00;96839.84;5050605;27;20124;-85
2022/08/14 05:19:36;;;;;;;44.17;23.98;;;;;;;18.29;100.00;96846.69;5027018;28;20492;-84
2022/08/14 05:22:02;;;;;;;43.72;22.58;;;;;;;18.18;100.00;96834.25;5025941;28;20057;-88
2022/08/14 05:24:28;;;;;;;43.38;24.42;;;;;;;18.24;100.00;96841.75;5048433;28;20072;-86
2022/08/14 05:26:54;;;;;;;48.75;23.58;;;;;;;18.29;100.00;96833.16;5044837;28;20432;-87
2022/08/14 05:29:20;;;;;;;37.60;22.00;;;;;;;18.35;100.00;96830.66;5036638;28;20025;-89
2022/08/14 05:31:45;;;;;;;42.47;23.80;;;;;;;18.46;100.00;96853.91;5011228;28;20412;-89
2022/08/14 05:34:11;;;;;;;41.60;24.05;;;;;;;18.48;100.00;96849.19;5029946;28;20057;-88
2022/08/14 05:36:36;;;;;;;39.15;24.23;;;;;;;18.47;100.00;96846.63;5046226;28;20037;-87
2022/08/14 05:39:03;;;;;;;34.97;22.17;;;;;;;18.62;100.00;96858.59;5026821;28;20021;-83
2022/08/14 05:41:29;;;;;;;40.67;23.05;;;;;;;18.61;100.00;96854.19;5042809;28;20454;-83
2022/08/14 05:43:54;;;;;;;39.90;23.15;;;;;;;18.77;100.00;96844.28;5028138;28;20028;-83
2022/08/14 05:46:23;;;;;;;37.50;23.42;;;;;;;18.81;100.00;96851.06;5026205;28;20017;-86
2022/08/14 05:48:53;;;;;;;37.90;25.67;;;;;;;18.77;100.00;96859.69;5008944;28;20022;-88
2022/08/14 05:51:20;;;;;;;38.67;24.75;;;;;;;18.80;100.00;96860.19;5020708;28;20488;-82
2022/08/14 05:53:46;;;;;;;38.17;24.20;;;;;;;18.75;100.00;96861.72;5010291;28;20033;-84
2022/08/14 05:56:11;;;;;;;39.95;25.65;;;;;;;18.68;100.00;96858.78;5027447;28;20024;-80
2022/08/14 05:58:37;;;;;;;34.22;24.60;;;;;;;18.83;100.00;96867.16;5078681;28;20032;-86
2022/08/14 06:01:04;;;;;;;38.83;24.30;;;;;;;18.88;100.00;96860.25;5044434;28;20029;-82
2022/08/14 06:03:29;;;;;;;33.00;23.95;;;;;;;19.00;100.00;96854.53;5029623;28;20521;-84
2022/08/14 06:05:55;;;;;;;34.17;22.77;;;;;;;18.98;100.00;96837.59;5008247;28;20177;-81
2022/08/14 06:08:26;;;;;;;32.67;23.95;;;;;;;19.12;100.00;96835.09;5023954;28;20025;-83
2022/08/14 06:10:55;;;;;;;33.08;23.17;;;;;;;19.24;100.00;96841.03;5026634;28;20024;-81
2022/08/14 06:13:22;;;;;;;40.42;25.10;;;;;;;19.41;100.00;96849.06;5030548;28;20037;-82
2022/08/14 06:16:06;;;;;;;35.45;23.83;;;;;;;19.46;100.00;96846.72;5037599;28;20021;-83
2022/08/14 06:18:34;;;;;;;32.25;22.15;;;;;;;19.51;100.00;96843.50;5038306;28;20021;-82
2022/08/14 06:21:03;;;;;;;41.58;27.50;;;;;;;19.56;100.00;96857.44;5022643;28;20108;-82
2022/08/14 06:23:28;;;;;;;35.95;24.45;;;;;;;19.60;100.00;96852.50;5050821;28;20061;-85
2022/08/14 06:25:54;;;;;;;41.38;23.85;;;;;;;19.83;100.00;96857.13;5029901;28;20017;-86
2022/08/14 06:28:22;;;;;;;35.00;21.80;;;;;;;19.99;100.00;96851.66;5014830;28;20059;-85
2022/08/14 06:30:48;;;;;;;36.15;23.67;;;;;;;20.09;100.00;96864.25;5019016;28;20028;-83
2022/08/14 06:33:15;;;;;;;33.92;23.15;;;;;;;20.08;100.00;96863.38;5039564;28;20032;-84
2022/08/14 06:35:41;;;;;;;32.92;21.77;;;;;;;20.11;100.00;96873.06;5016512;28;20029;-82
2022/08/14 06:38:07;;;;;;;36.38;24.05;;;;;;;20.14;100.00;96860.00;5030013;28;20058;-82
2022/08/14 06:40:35;;;;;;;33.55;21.88;;;;;;;20.08;100.00;96873.41;5043382;28;20076;-83
2022/08/14 06:43:06;;;;;;;38.05;23.73;;;;;;;20.16;100.00;96876.09;5034795;28;20060;-85
2022/08/14 06:45:34;;;;;;;33.47;23.13;;;;;;;20.37;100.00;96880.00;5042088;28;20041;-88
2022/08/14 06:48:00;;;;;;;32.65;22.15;;;;;;;20.28;100.00;96872.03;5043478;28;20021;-81
2022/08/14 06:50:27;;;;;;;30.45;21.67;;;;;;;20.25;100.00;96875.91;5021724;28;20494;-83
2022/08/14 06:52:53;;;;;;;29.15;21.60;;;;;;;20.01;100.00;96873.22;5018579;28;20032;-82
2022/08/14 06:55:18;;;;;;;35.35;22.83;;;;;;;20.18;100.00;96888.47;5017209;28;20256;-83
2022/08/14 06:57:46;;;;;;;29.90;21.48;;;;;;;20.23;100.00;96882.56;5041866;28;20082;-85
2022/08/14 07:00:15;;;;;;;33.92;22.27;;;;;;;20.28;100.00;96878.31;5013893;28;20030;-85
2022/08/14 07:08:16;;;;;;;28.10;20.05;;;;;;;21.25;100.00;96874.50;5037605;28;20030;-83
2022/08/14 07:10:43;;;;;;;28.17;18.23;;;;;;;21.69;100.00;96866.59;5018809;28;20038;-83
2022/08/14 07:13:10;;;;;;;24.15;18.50;;;;;;;22.03;100.00;96876.06;5038799;28;20469;-83
2022/08/14 07:15:36;;;;;;;26.88;17.88;;;;;;;21.85;100.00;96883.66;5029092;28;20033;-83
2022/08/14 07:18:03;;;;;;;25.00;18.92;;;;;;;21.41;100.00;96874.44;5038780;28;20548;-84
2022/08/14 07:20:29;;;;;;;23.63;16.88;;;;;;;21.44;100.00;96883.06;5015384;28;20101;-84
2022/08/14 07:22:57;;;;;;;24.98;18.20;;;;;;;21.23;100.00;96890.16;5041918;28;20033;-82
2022/08/14 07:25:26;;;;;;;27.45;19.55;;;;;;;20.83;100.00;96859.34;5025331;28;20041;-83
2022/08/14 07:27:52;;;;;;;30.38;20.40;;;;;;;20.97;100.00;96893.13;5033573;28;20026;-83
2022/08/14 07:30:18;;;;;;;27.52;19.52;;;;;;;21.01;100.00;96894.47;5046441;28;20136;-83
2022/08/14 07:32:43;;;;;;;28.85;19.98;;;;;;;20.89;100.00;96885.81;5021561;28;20124;-84
2022/08/14 07:35:09;;;;;;;28.85;18.75;;;;;;;20.88;100.00;96877.88;5019661;28;20622;-82
2022/08/14 07:37:35;;;;;;;28.80;18.85;;;;;;;20.69;100.00;96900.00;5018583;28;20086;-85
2022/08/14 07:40:02;;;;;;;30.35;19.92;;;;;;;20.69;100.00;96889.97;5036120;28;20037;-85
2022/08/14 07:42:28;;;;;;;24.88;18.30;;;;;;;20.84;100.00;96882.78;5017713;28;20029;-84
2022/08/14 07:44:53;;;;;;;23.35;17.63;;;;;;;20.95;100.00;96878.84;5015013;28;20070;-86
2022/08/14 07:47:19;;;;;;;25.27;18.48;;;;;;;21.19;100.00;96892.41;5018658;28;20045;-90
2022/08/14 07:50:18;;;;;;;24.67;17.52;;;;;;;21.34;100.00;96892.50;5027318;28;20033;-84
2022/08/14 07:52:45;;;;;;;28.35;17.58;;;;;;;21.29;100.00;96894.88;5020422;28;20037;-84
2022/08/14 07:55:13;;;;;;;25.45;17.17;;;;;;;21.30;100.00;96921.91;5025961;28;20032;-84
2022/08/14 07:57:40;;;;;;;23.13;17.52;;;;;;;21.17;100.00;96921.63;5039105;28;20029;-85
2022/08/14 08:00:10;;;;;;;23.45;17.45;;;;;;;20.92;100.00;96917.25;5037888;28;20021;-85
2022/08/14 08:02:38;;;;;;;23.90;18.17;;;;;;;20.70;100.00;96913.44;5033664;28;20021;-84
2022/08/14 08:05:04;;;;;;;27.38;20.88;;;;;;;20.73;100.00;96914.94;5040086;28;20053;-83
2022/08/14 08:07:31;;;;;;;25.42;18.25;;;;;;;20.65;100.00;96915.81;5034755;28;20492;-85
2022/08/14 08:09:58;;;;;;;27.70;19.08;;;;;;;20.60;100.00;96923.63;5039690;28;20030;-84
2022/08/14 08:12:24;;;;;;;111.10;48.45;;;;;;;20.57;100.00;96920.41;5015916;28;20033;-84
2022/08/14 08:14:51;;;;;;;47.88;26.90;;;;;;;20.41;100.00;96910.41;5032941;28;20037;-84
2022/08/14 08:17:19;;;;;;;31.00;21.90;;;;;;;20.48;100.00;96919.59;5014785;28;20029;-84
2022/08/14 08:19:47;;;;;;;30.50;19.83;;;;;;;20.42;100.00;96920.25;5031021;28;20040;-88
2022/08/14 08:22:13;;;;;;;26.63;18.02;;;;;;;20.37;100.00;96928.06;5027694;28;20432;-82
2022/08/14 08:24:38;;;;;;;39.58;20.30;;;;;;;20.15;100.00;96920.59;5032056;28;20112;-81
2022/08/14 08:27:22;;;;;;;27.33;19.58;;;;;;;19.90;100.00;96898.81;5040675;28;20636;-80
2022/08/14 08:29:48;;;;;;;29.38;19.52;;;;;;;19.94;100.00;96900.19;5038766;28;20104;-80
2022/08/14 08:32:13;;;;;;;35.08;21.58;;;;;;;20.06;100.00;96908.03;5030102;28;20116;-80
2022/08/14 08:34:44;;;;;;;36.85;21.70;;;;;;;20.15;100.00;96901.56;5012432;28;20040;-80
2022/08/14 08:37:11;;;;;;;30.48;21.23;;;;;;;20.14;100.00;96899.88;5035709;28;20520;-80
2022/08/14 08:39:44;;;;;;;33.83;21.05;;;;;;;20.16;100.00;96898.69;5024291;28;20021;-80
2022/08/14 08:42:10;;;;;;;37.63;23.48;;;;;;;20.19;100.00;96897.47;5021650;28;20047;-80
2022/08/14 08:44:35;;;;;;;36.97;24.02;;;;;;;20.19;100.00;96886.63;5008908;28;20037;-79
2022/08/14 08:47:06;;;;;;;36.00;24.33;;;;;;;20.17;100.00;96888.66;5009178;28;20057;-80
2022/08/14 08:49:51;;;;;;;39.75;25.58;;;;;;;20.07;100.00;96890.69;5037371;28;20051;-81
2022/08/14 08:52:16;;;;;;;39.30;25.08;;;;;;;20.10;100.00;96882.22;5024689;28;20030;-81
2022/08/14 08:54:52;;;;;;;45.13;26.13;;;;;;;20.00;100.00;96882.38;5008485;28;20102;-80
2022/08/14 08:57:18;;;;;;;37.22;23.27;;;;;;;19.77;100.00;96871.34;5007524;28;20030;-81
2022/08/14 08:59:43;;;;;;;43.17;23.75;;;;;;;19.93;100.00;96881.38;5039054;28;20032;-80
2022/08/14 09:02:09;;;;;;;43.20;24.65;;;;;;;19.92;100.00;96875.09;5021556;28;20472;-79
2022/08/14 09:04:43;;;;;;;38.67;24.65;;;;;;;19.95;100.00;96888.34;5018222;28;20031;-77
2022/08/14 09:07:09;;;;;;;37.13;24.75;;;;;;;19.89;100.00;96874.59;5038927;28;20132;-78
2022/08/14 09:09:49;;;;;;;35.80;23.73;;;;;;;19.92;100.00;96876.97;5044314;28;20052;-77
2022/08/14 09:12:16;;;;;;;42.83;25.02;;;;;;;19.86;100.00;96864.06;5029879;28;20071;-79
2022/08/14 09:14:41;;;;;;;40.72;25.63;;;;;;;20.02;100.00;96873.06;5044085;28;20025;-77
2022/08/14 09:17:07;;;;;;;36.25;23.13;;;;;;;20.17;100.00;96872.38;5012940;28;20125;-78
2022/08/14 09:19:35;;;;;;;32.78;21.73;;;;;;;20.21;100.00;96881.88;5015517;28;20377;-78
2022/08/14 09:22:02;;;;;;;33.20;21.45;;;;;;;20.16;100.00;96866.09;5024258;28;20025;-78
2022/08/14 09:24:28;;;;;;;35.63;23.15;;;;;;;20.38;100.00;96873.56;5017591;28;20203;-78
2022/08/14 09:26:54;;;;;;;30.83;21.73;;;;;;;20.48;100.00;96878.81;5024301;28;20500;-78
2022/08/14 09:29:20;;;;;;;40.78;21.58;;;;;;;20.61;100.00;96873.69;5006101;28;20117;-78
2022/08/14 09:31:48;;;;;;;39.65;19.40;;;;;;;20.58;100.00;96868.59;5007648;28;20036;-78
2022/08/14 09:34:28;;;;;;;28.27;19.52;;;;;;;20.76;100.00;96874.69;5032876;28;20029;-76
2022/08/14 09:37:42;;;;;;;25.25;17.90;;;;;;;21.00;100.00;96877.31;5026866;28;20040;-78
2022/08/14 09:40:16;;;;;;;29.13;19.42;;;;;;;21.21;100.00;96871.28;4970658;28;20050;-76
2022/08/14 09:43:24;;;;;;;25.25;18.83;;;;;;;21.47;100.00;96879.16;5019188;28;20037;-78
2022/08/14 09:45:51;;;;;;;26.00;19.65;;;;;;;21.82;100.00;96869.56;5037699;28;20507;-77
2022/08/14 09:48:19;;;;;;;21.63;15.85;;;;;;;22.28;100.00;96867.66;5007764;28;20418;-76
2022/08/14 09:50:54;;;;;;;24.15;15.55;;;;;;;22.61;100.00;96875.34;5026533;28;20159;-76
2022/08/14 09:53:42;;;;;;;18.40;14.93;;;;;;;23.28;100.00;96874.44;5026516;28;20496;-78
2022/08/14 09:56:10;;;;;;;19.65;13.43;;;;;;;23.65;100.00;96874.31;5007710;28;20039;-77
2022/08/14 09:58:42;;;;;;;18.77;14.38;;;;;;;24.18;100.00;96872.97;5023723;28;20033;-77
2022/08/14 10:01:19;;;;;;;16.90;13.48;;;;;;;24.57;100.00;96870.59;5039221;28;20040;-76
2022/08/14 10:03:55;;;;;;;18.75;12.20;;;;;;;25.02;98.09;96863.75;5043241;28;20025;-79
2022/08/14 10:06:24;;;;;;;18.70;13.10;;;;;;;26.20;92.18;96861.50;5035167;28;20053;-76
2022/08/14 10:09:11;;;;;;;14.07;11.70;;;;;;;26.96;82.81;96859.16;5006355;28;20029;-76
2022/08/14 10:11:38;;;;;;;14.88;12.00;;;;;;;27.11;81.35;96859.75;5031408;28;20041;-78
2022/08/14 10:14:20;;;;;;;16.05;13.07;;;;;;;26.32;81.28;96857.09;5028872;28;20036;-77
2022/08/14 10:16:49;;;;;;;14.50;11.48;;;;;;;25.87;83.33;96846.88;5028899;28;20060;-77
2022/08/14 10:19:18;;;;;;;14.13;12.63;;;;;;;26.91;82.66;96846.09;5023602;28;20120;-78
2022/08/14 10:22:15;;;;;;;17.02;13.25;;;;;;;27.69;78.68;96838.63;5032744;28;20045;-78
2022/08/14 10:24:45;;;;;;;16.98;14.00;;;;;;;27.62;75.47;96826.00;5025518;28;20491;-79
2022/08/14 10:27:17;;;;;;;21.50;16.98;;;;;;;27.70;76.89;96837.59;5007494;28;20070;-79
2022/08/14 10:29:47;;;;;;;18.83;14.95;;;;;;;27.38;78.45;96833.03;5008318;28;20030;-78
2022/08/14 10:32:13;;;;;;;18.17;12.80;;;;;;;26.49;78.89;96829.25;5036787;28;20037;-77
2022/08/14 10:34:39;;;;;;;14.38;12.70;;;;;;;25.96;86.82;96840.16;5039341;28;20453;-78
2022/08/14 10:37:08;;;;;;;15.63;12.63;;;;;;;25.30;86.90;96833.59;5024930;28;20411;-77
2022/08/14 10:39:35;;;;;;;13.90;12.27;;;;;;;24.83;89.45;96828.91;5031939;28;20757;-78
2022/08/14 10:42:07;;;;;;;17.02;12.02;;;;;;;24.82;91.23;96824.50;5041594;28;20065;-78
2022/08/14 10:44:39;;;;;;;16.02;12.80;;;;;;;24.93;92.49;96812.13;5031706;28;20027;-79
2022/08/14 10:47:09;;;;;;;13.73;11.13;;;;;;;25.23;88.76;96811.66;5037855;28;20494;-79
2022/08/14 10:49:36;;;;;;;14.20;11.52;;;;;;;25.18;88.75;96811.41;5033379;28;20037;-78
2022/08/14 10:52:05;;;;;;;13.88;12.48;;;;;;;25.62;88.81;96816.47;5031351;28;20072;-77
2022/08/14 10:54:33;;;;;;;14.15;12.65;;;;;;;26.12;85.50;96812.31;5031987;28;20041;-78
2022/08/14 10:57:14;;;;;;;14.73;13.23;;;;;;;26.77;79.48;96816.09;5032147;28;20064;-79
2022/08/14 10:59:57;;;;;;;15.70;13.77;;;;;;;27.26;78.80;96816.41;5037136;28;20044;-76
2022/08/14 11:02:36;;;;;;;21.00;18.73;;;;;;;28.52;70.17;96809.94;5024056;28;20485;-76
2022/08/14 11:05:12;;;;;;;19.75;17.80;;;;;;;30.19;64.31;96801.16;5039715;28;20408;-77
2022/08/14 11:08:00;;;;;;;26.48;24.20;;;;;;;31.39;57.93;96796.03;5047424;28;20039;-77
2022/08/14 11:10:40;;;;;;;27.35;25.08;;;;;;;31.35;58.31;96798.44;5028457;28;20046;-78
2022/08/14 11:13:05;;;;;;;25.13;22.85;;;;;;;30.49;55.12;96784.56;5037491;28;20108;-79
2022/08/14 11:15:32;;;;;;;25.67;23.23;;;;;;;31.04;55.68;96785.09;5012333;28;20120;-79
2022/08/14 11:17:57;;;;;;;23.17;20.83;;;;;;;30.69;54.96;96787.81;5020489;28;20464;-78
2022/08/14 11:20:25;;;;;;;31.50;28.55;;;;;;;30.65;55.21;96781.09;5023706;28;20029;-78
2022/08/14 11:22:53;;;;;;;26.35;23.70;;;;;;;31.67;53.21;96780.38;5021224;28;20475;-79
2022/08/14 11:25:22;;;;;;;27.98;25.52;;;;;;;30.99;54.29;96784.94;5043063;28;20025;-77
2022/08/14 11:27:48;;;;;;;30.00;27.05;;;;;;;30.41;56.57;96791.28;5049961;28;20021;-78
2022/08/14 11:30:18;;;;;;;28.08;25.42;;;;;;;30.94;55.02;96787.56;5032221;28;20029;-79
2022/08/14 11:32:49;;;;;;;24.55;21.90;;;;;;;31.09;53.92;96783.25;5029088;28;20476;-78
2022/08/14 11:35:20;;;;;;;23.38;21.15;;;;;;;31.75;53.30;96778.31;5042533;28;20021;-78